KTEX/TEX METAR and TAF weather

Enter ICAO airport designator
Station Type Date Time Source
KTEX METAR 2020/03/31 09:15 UTC NOAA

KTEX 310915Z AUTO 15004KT 10SM CLR M03/M07 A3029 RMK AO2


Station Type Date Time Source
KTEX Decoded METAR 2020/03/31 09:15 UTC NOAA

Telluride, Telluride Regional Airport, CO, United States (KTEX) 37-57-14N 107-54-31W
Mar 31, 2020 - 05:15 AM EDT / 2020.03.31 0915 UTC
Wind: from the SSE (150 degrees) at 5 MPH (4 KT):0
Visibility: 10 mile(s):0
Sky conditions: clear
Temperature: 26 F (-3 C)
Windchill: 19 F (-7 C):1
Dew Point: 19 F (-7 C)
Relative Humidity: 73%
Pressure (altimeter): 30.29 in. Hg (1025 hPa)
ob: KTEX 310915Z AUTO 15004KT 10SM CLR M03/M07 A3029 RMK AO2
cycle: 9

Station Type Date Time Source
KTEX TAF 2020/03/31 06:22 UTC NOAA

TAF KTEX 310520Z 3106/0106 14006KT P6SM FEW060 FEW100
FM311800 23010G20KT P6SM FEW070 FEW250
FM010200 16008G16KT P6SM FEW060 FEW250

Example: see airport list